Terminal Aerodrome Forecast
Issued by NWS Memphis, TN

Home | Current Version | Previous Version | Text Only | Print | Product List | Glossary On
Versions: 1 2 3 4 5 6 7 8 9 10 11 12 13 14 15 16 17 18
000
FTUS44 KMEG 291502 AAA
TAFMKL
TAF AMD
KMKL 291502Z 2915/3012 17006KT P6SM OVC008
     FM291800 18007KT P6SM BKN015 OVC025
     FM292000 18007KT P6SM VCTS BKN025CB BKN250
     FM300100 18003KT P6SM BKN050 BKN250
     FM300900 18004KT P6SM OVC006=

USA.gov is the U.S. government's official web portal to all federal, state and local government web resources and services.